Time;durP1;ratioP1;P1;durP2;ratioP2;P2;SDS_P1;SDS_P2;PMS_P1;PMS_P2;Temp;Humidity;BMP_temperature;BMP_pressure;BME280_temperature;BME280_humidity;BME280_pressure;Samples;Min_cycle;Max_cycle;Signal;HPM_P1;HPM_P2
2021/04/25 00:00:23;;;;;;;9.95;2.38;;;2.10;98.60;;;;;;5074651;28;20044;-64
2021/04/25 00:02:49;;;;;;;8.13;2.50;;;2.10;98.50;;;;;;5042643;28;20103;-64
2021/04/25 00:05:16;;;;;;;17.67;2.72;;;2.10;98.60;;;;;;5043475;28;20048;-63
2021/04/25 00:07:42;;;;;;;11.95;2.67;;;1.90;98.70;;;;;;5057360;28;20041;-65
2021/04/25 00:10:10;;;;;;;9.35;2.33;;;1.90;99.10;;;;;;5062765;28;20048;-65
2021/04/25 00:12:36;;;;;;;8.43;2.38;;;1.90;99.00;;;;;;5062601;28;20131;-64
2021/04/25 00:15:03;;;;;;;7.25;2.50;;;1.90;99.30;;;;;;5054476;28;20555;-64
2021/04/25 00:17:29;;;;;;;10.95;2.60;;;1.80;99.80;;;;;;5049213;28;20064;-63
2021/04/25 00:19:55;;;;;;;9.23;2.40;;;1.80;99.50;;;;;;5049525;28;20437;-63
2021/04/25 00:22:21;;;;;;;10.80;2.40;;;1.70;99.40;;;;;;5049468;28;20750;-64
2021/04/25 00:24:47;;;;;;;7.50;2.35;;;1.70;99.30;;;;;;5049509;28;20511;-63
2021/04/25 00:27:12;;;;;;;10.98;3.00;;;1.70;99.60;;;;;;5064952;28;20074;-64
2021/04/25 00:29:39;;;;;;;7.43;2.40;;;1.50;99.70;;;;;;5049352;28;20041;-64
2021/04/25 00:32:05;;;;;;;6.78;2.65;;;1.60;99.90;;;;;;5048599;28;20417;-65
2021/04/25 00:34:30;;;;;;;6.30;2.25;;;1.60;99.90;;;;;;5048575;28;20408;-66
2021/04/25 00:36:56;;;;;;;11.60;2.78;;;1.60;99.90;;;;;;5047948;28;20047;-64
2021/04/25 00:39:21;;;;;;;5.82;2.50;;;1.60;99.90;;;;;;5049452;28;20051;-64
2021/04/25 00:41:47;;;;;;;10.57;2.88;;;1.60;99.90;;;;;;5048357;28;20049;-65
2021/04/25 00:44:13;;;;;;;11.57;3.05;;;1.50;99.90;;;;;;5048393;28;20091;-64
2021/04/25 00:46:39;;;;;;;9.82;2.78;;;1.50;99.90;;;;;;5039193;28;20107;-64
2021/04/25 00:49:06;;;;;;;9.25;3.35;;;1.50;99.90;;;;;;5048683;28;20048;-64
2021/04/25 00:51:32;;;;;;;7.07;2.78;;;1.50;99.90;;;;;;5044292;28;20536;-64
2021/04/25 00:54:00;;;;;;;10.57;2.90;;;1.40;99.90;;;;;;5040482;28;20044;-64
2021/04/25 00:56:25;;;;;;;6.43;3.00;;;1.40;99.90;;;;;;5049145;28;20041;-65
2021/04/25 00:58:51;;;;;;;9.60;3.42;;;1.30;99.90;;;;;;5048313;28;20037;-64
2021/04/25 01:01:17;;;;;;;9.43;2.88;;;1.30;99.90;;;;;;5054827;28;20039;-65
2021/04/25 01:03:43;;;;;;;10.27;2.72;;;1.30;99.90;;;;;;5066783;28;20120;-62
2021/04/25 01:06:09;;;;;;;9.90;3.40;;;1.20;99.90;;;;;;5067941;28;20156;-64
2021/04/25 01:08:34;;;;;;;10.57;3.20;;;1.20;99.90;;;;;;5068307;28;20041;-63
2021/04/25 01:11:00;;;;;;;10.57;4.32;;;1.20;99.90;;;;;;5068249;28;20036;-65
2021/04/25 01:13:26;;;;;;;13.25;3.50;;;1.20;99.90;;;;;;5068535;28;20067;-66
2021/04/25 01:15:52;;;;;;;9.85;3.15;;;1.20;99.90;;;;;;5061552;28;20496;-64
2021/04/25 01:18:18;;;;;;;8.57;2.80;;;1.10;99.90;;;;;;5048219;28;20048;-64
2021/04/25 01:20:43;;;;;;;12.38;3.30;;;1.00;99.90;;;;;;5048543;28;20044;-67
2021/04/25 01:23:09;;;;;;;18.73;4.85;;;1.00;99.90;;;;;;5047797;28;20581;-63
2021/04/25 01:25:34;;;;;;;6.57;3.05;;;0.80;99.90;;;;;;5047981;28;20083;-64
2021/04/25 01:28:00;;;;;;;12.27;3.58;;;0.80;99.90;;;;;;5047740;28;20120;-66
2021/04/25 01:30:32;;;;;;;7.28;3.22;;;0.80;99.90;;;;;;5049852;28;20037;-63
2021/04/25 01:32:58;;;;;;;7.53;3.40;;;0.70;99.90;;;;;;5067476;28;20036;-63
2021/04/25 01:35:25;;;;;;;14.23;3.40;;;0.60;99.90;;;;;;5067423;28;20037;-64
2021/04/25 01:37:55;;;;;;;6.82;3.03;;;0.70;99.90;;;;;;5068817;28;20067;-63
2021/04/25 01:40:23;;;;;;;10.00;3.35;;;0.60;99.90;;;;;;5067336;28;20036;-66
2021/04/25 01:42:49;;;;;;;13.80;4.00;;;0.70;99.90;;;;;;5067265;28;20055;-65
2021/04/25 01:45:16;;;;;;;11.40;3.83;;;0.70;99.90;;;;;;5068293;28;20601;-63
2021/04/25 01:47:44;;;;;;;9.55;3.30;;;0.70;99.90;;;;;;5067862;28;20049;-64
2021/04/25 01:50:10;;;;;;;13.88;3.58;;;0.70;99.90;;;;;;5069503;28;20097;-66
2021/04/25 01:52:35;;;;;;;13.70;4.22;;;0.70;99.90;;;;;;5071036;28;20044;-65
2021/04/25 01:55:01;;;;;;;13.93;4.45;;;0.60;99.90;;;;;;5069128;28;20792;-65
2021/04/25 01:57:27;;;;;;;23.23;4.97;;;0.50;99.90;;;;;;5067337;28;20037;-64
2021/04/25 01:59:52;;;;;;;12.07;4.32;;;0.50;99.90;;;;;;5067527;28;20082;-64
2021/04/25 02:02:18;;;;;;;9.02;3.80;;;0.50;99.90;;;;;;5067378;28;20040;-65
2021/04/25 02:04:43;;;;;;;12.05;3.80;;;0.60;99.90;;;;;;5067422;28;20040;-64
2021/04/25 02:07:09;;;;;;;12.18;4.43;;;0.70;99.90;;;;;;5067707;28;20162;-63
2021/04/25 02:09:35;;;;;;;15.73;4.85;;;0.70;99.90;;;;;;5067376;28;20044;-67
2021/04/25 02:12:00;;;;;;;14.27;4.82;;;0.80;99.90;;;;;;5067104;28;20032;-64
2021/04/25 02:14:26;;;;;;;16.58;4.80;;;0.80;99.90;;;;;;5067296;28;20531;-64
2021/04/25 02:16:52;;;;;;;20.92;5.60;;;0.90;99.90;;;;;;5066378;28;20424;-64
2021/04/25 02:19:17;;;;;;;15.07;5.85;;;1.00;99.90;;;;;;5066072;28;20044;-63
2021/04/25 02:21:43;;;;;;;16.60;6.07;;;1.10;99.90;;;;;;5066535;28;20040;-65
2021/04/25 02:24:09;;;;;;;16.73;5.38;;;1.20;99.90;;;;;;5066588;28;20043;-65
2021/04/25 02:26:34;;;;;;;15.52;5.90;;;1.20;99.90;;;;;;5067194;28;20048;-65
2021/04/25 02:29:00;;;;;;;13.60;5.65;;;1.30;99.90;;;;;;5067026;28;20044;-67
2021/04/25 02:31:25;;;;;;;20.67;5.63;;;1.30;99.90;;;;;;5065909;28;20043;-64
2021/04/25 02:33:51;;;;;;;17.13;7.05;;;1.40;99.90;;;;;;5066530;28;20045;-64
2021/04/25 02:36:17;;;;;;;23.52;9.35;;;1.50;99.90;;;;;;5067170;28;20043;-63
2021/04/25 02:38:42;;;;;;;24.50;8.85;;;1.50;99.90;;;;;;5065764;28;20036;-65
2021/04/25 02:41:08;;;;;;;18.95;8.05;;;1.60;99.90;;;;;;5066183;28;20079;-63
2021/04/25 02:43:33;;;;;;;19.67;7.88;;;1.60;99.90;;;;;;5066777;28;20071;-64
2021/04/25 02:45:59;;;;;;;17.67;7.53;;;1.60;99.90;;;;;;5066340;28;20036;-66
2021/04/25 02:48:24;;;;;;;19.80;7.40;;;1.80;99.90;;;;;;5066261;28;20412;-64
2021/04/25 02:50:50;;;;;;;17.15;7.32;;;1.80;99.90;;;;;;5066642;28;20086;-67
2021/04/25 02:53:16;;;;;;;18.20;7.97;;;1.70;99.90;;;;;;5066362;28;20040;-66
2021/04/25 02:55:41;;;;;;;26.30;7.55;;;1.70;99.90;;;;;;5066573;28;20539;-65
2021/04/25 02:58:08;;;;;;;19.83;7.85;;;1.70;99.90;;;;;;5065747;28;20504;-66
2021/04/25 03:00:35;;;;;;;23.52;7.53;;;1.70;99.90;;;;;;5066226;28;20048;-66
2021/04/25 03:03:00;;;;;;;23.90;7.45;;;1.70;99.90;;;;;;5065868;28;20044;-65
2021/04/25 03:05:27;;;;;;;23.85;7.90;;;1.70;99.90;;;;;;5066221;28;20086;-68
2021/04/25 03:07:53;;;;;;;26.92;8.63;;;1.70;99.90;;;;;;5066909;28;20105;-67
2021/04/25 03:10:20;;;;;;;17.70;6.30;;;1.80;99.90;;;;;;5066407;28;20111;-65
2021/04/25 03:12:46;;;;;;;18.42;7.15;;;1.80;99.90;;;;;;5066332;28;20118;-65
2021/04/25 03:15:13;;;;;;;25.73;7.57;;;1.80;99.90;;;;;;5065576;28;20581;-64
2021/04/25 03:17:39;;;;;;;14.00;6.40;;;1.90;99.90;;;;;;5067000;28;20037;-63
2021/04/25 03:20:07;;;;;;;27.23;7.35;;;1.90;99.90;;;;;;5066392;28;20036;-64
2021/04/25 03:22:32;;;;;;;20.80;8.35;;;1.80;99.90;;;;;;5064413;28;20045;-65
2021/04/25 03:24:58;;;;;;;24.67;7.25;;;1.80;99.90;;;;;;5065511;28;20041;-64
2021/04/25 03:27:24;;;;;;;22.90;6.65;;;1.80;99.90;;;;;;5066415;28;20036;-63
2021/04/25 03:29:49;;;;;;;18.10;7.13;;;1.80;99.90;;;;;;5066310;28;20485;-67
2021/04/25 03:32:15;;;;;;;22.83;6.85;;;1.80;99.90;;;;;;5065666;28;20057;-69
2021/04/25 03:34:41;;;;;;;14.77;5.93;;;1.80;99.90;;;;;;5066090;28;20040;-61
2021/04/25 03:37:06;;;;;;;14.90;5.95;;;1.70;99.90;;;;;;5066814;28;20033;-65
2021/04/25 03:39:32;;;;;;;20.23;5.78;;;1.70;99.90;;;;;;5065931;28;20051;-64
2021/04/25 03:41:57;;;;;;;17.65;6.07;;;1.70;99.90;;;;;;5066642;28;20032;-66
2021/04/25 03:44:23;;;;;;;19.67;6.28;;;1.80;99.90;;;;;;5064987;28;20458;-64
2021/04/25 03:46:49;;;;;;;19.70;5.80;;;1.80;99.90;;;;;;5081570;28;20043;-65
2021/04/25 03:49:20;;;;;;;16.83;6.28;;;1.70;99.90;;;;;;5066607;28;20093;-63
2021/04/25 03:51:50;;;;;;;14.93;5.68;;;1.70;99.90;;;;;;5070056;28;20044;-63
2021/04/25 03:54:16;;;;;;;14.80;5.85;;;1.70;99.90;;;;;;5069041;28;20047;-65
2021/04/25 03:56:42;;;;;;;16.52;5.80;;;1.60;99.90;;;;;;5068699;28;20054;-63
2021/04/25 03:59:08;;;;;;;13.70;6.45;;;1.60;99.90;;;;;;5070539;28;20411;-66
2021/04/25 04:01:34;;;;;;;21.00;6.25;;;1.70;99.90;;;;;;5068969;28;20116;-66
2021/04/25 04:04:00;;;;;;;20.83;6.75;;;1.70;99.90;;;;;;5068974;28;20086;-66
2021/04/25 04:06:26;;;;;;;14.38;5.65;;;1.70;99.90;;;;;;5068705;28;20040;-64
2021/04/25 04:08:51;;;;;;;19.90;6.53;;;1.70;99.90;;;;;;5067981;28;20040;-65
2021/04/25 04:11:17;;;;;;;17.70;6.00;;;1.70;99.90;;;;;;5068880;28;20080;-66
2021/04/25 04:13:43;;;;;;;18.23;6.22;;;1.60;99.90;;;;;;5069478;28;20767;-68
2021/04/25 04:16:09;;;;;;;20.63;6.63;;;1.70;99.90;;;;;;5068534;28;20045;-66
2021/04/25 04:18:35;;;;;;;24.83;6.72;;;1.70;99.90;;;;;;5070049;28;20036;-63
2021/04/25 04:21:00;;;;;;;16.52;6.05;;;1.70;99.90;;;;;;5069009;28;20123;-63
2021/04/25 04:23:26;;;;;;;15.65;5.93;;;1.70;99.90;;;;;;5068628;28;20036;-63
2021/04/25 04:25:51;;;;;;;19.27;6.10;;;1.80;99.90;;;;;;5069622;28;20097;-64
2021/04/25 04:28:17;;;;;;;15.90;6.32;;;1.80;99.90;;;;;;5068525;28;20032;-66
2021/04/25 04:30:43;;;;;;;13.43;5.32;;;1.70;99.90;;;;;;5069068;28;20032;-63
2021/04/25 04:33:08;;;;;;;15.48;5.60;;;1.70;99.90;;;;;;5067428;28;20051;-63
2021/04/25 04:35:34;;;;;;;34.08;8.20;;;1.60;99.90;;;;;;5069507;28;20060;-65
2021/04/25 04:37:59;;;;;;;20.75;6.40;;;1.70;99.90;;;;;;5068993;28;20524;-66
2021/04/25 04:40:25;;;;;;;18.27;6.05;;;1.70;99.90;;;;;;5068191;28;20045;-68
2021/04/25 04:42:51;;;;;;;23.67;6.28;;;1.60;99.90;;;;;;5068461;28;20493;-64
2021/04/25 04:45:17;;;;;;;13.43;5.88;;;1.60;99.90;;;;;;5068413;28;20046;-63
2021/04/25 04:47:45;;;;;;;21.90;6.30;;;1.60;99.90;;;;;;5068985;28;20029;-65
2021/04/25 04:50:12;;;;;;;14.43;5.78;;;1.50;99.90;;;;;;5068398;28;20079;-65
2021/04/25 04:52:38;;;;;;;15.00;5.70;;;1.50;99.90;;;;;;5065851;28;20047;-63
2021/04/25 04:55:05;;;;;;;17.77;6.20;;;1.50;99.90;;;;;;5068269;28;20036;-65
2021/04/25 04:57:30;;;;;;;13.80;5.50;;;1.60;99.90;;;;;;5067522;28;20040;-65
2021/04/25 04:59:56;;;;;;;13.13;4.97;;;1.60;99.90;;;;;;5068641;28;20487;-64
2021/04/25 05:02:21;;;;;;;23.42;6.28;;;1.70;99.90;;;;;;5064220;28;20040;-64
2021/04/25 05:04:47;;;;;;;16.92;5.90;;;1.70;99.90;;;;;;5067536;28;20032;-60
2021/04/25 05:07:13;;;;;;;14.18;6.25;;;1.70;99.90;;;;;;5067837;28;20111;-66
2021/04/25 05:09:39;;;;;;;10.98;5.15;;;1.70;99.90;;;;;;5068472;28;20115;-60
2021/04/25 05:12:05;;;;;;;22.02;6.13;;;1.80;99.90;;;;;;5067585;28;20107;-56
2021/04/25 05:14:31;;;;;;;15.43;5.57;;;1.70;99.90;;;;;;5060517;28;20120;-58
2021/04/25 05:16:56;;;;;;;16.15;6.28;;;1.70;99.90;;;;;;5068181;28;20198;-59
2021/04/25 05:19:22;;;;;;;23.42;7.28;;;1.80;99.90;;;;;;5067597;28;20076;-56
2021/04/25 05:21:48;;;;;;;19.33;6.50;;;1.80;99.90;;;;;;5068173;28;20040;-58
2021/04/25 05:24:13;;;;;;;16.60;6.55;;;1.80;99.90;;;;;;5068256;28;20408;-59
2021/04/25 05:26:39;;;;;;;31.30;7.32;;;1.80;99.90;;;;;;5068124;28;20037;-60
2021/04/25 05:29:05;;;;;;;17.05;6.75;;;1.80;99.90;;;;;;5067610;28;20030;-62
2021/04/25 05:31:31;;;;;;;17.58;7.70;;;1.80;99.90;;;;;;5067126;28;20094;-62
2021/04/25 05:33:57;;;;;;;32.22;8.02;;;1.90;99.90;;;;;;5068252;28;20040;-62
2021/04/25 05:36:23;;;;;;;23.50;9.30;;;1.70;99.90;;;;;;5067546;28;20043;-62
2021/04/25 05:38:48;;;;;;;20.63;8.30;;;1.70;99.90;;;;;;5067818;28;20037;-62
2021/04/25 05:41:14;;;;;;;18.08;8.75;;;1.70;99.90;;;;;;5067366;28;20056;-63
2021/04/25 05:43:40;;;;;;;17.98;8.88;;;1.70;99.90;;;;;;5067209;28;20045;-62
2021/04/25 05:46:06;;;;;;;18.55;8.60;;;1.80;99.90;;;;;;5066709;28;20056;-62
2021/04/25 05:48:31;;;;;;;20.77;7.90;;;1.70;99.90;;;;;;5067552;28;20041;-62
2021/04/25 05:50:57;;;;;;;25.65;9.50;;;1.80;99.90;;;;;;5067362;28;20037;-62
2021/04/25 05:53:22;;;;;;;18.33;8.48;;;1.80;99.90;;;;;;5066570;28;20047;-63
2021/04/25 05:55:48;;;;;;;27.02;9.13;;;1.80;99.90;;;;;;5066055;28;20119;-64
2021/04/25 05:58:14;;;;;;;17.98;7.30;;;2.00;99.90;;;;;;5066078;28;20404;-64
2021/04/25 06:00:40;;;;;;;18.17;8.15;;;1.90;99.90;;;;;;5065091;28;20032;-62
2021/04/25 06:03:08;;;;;;;14.93;7.50;;;2.00;99.90;;;;;;5066466;28;20079;-66
2021/04/25 06:05:34;;;;;;;18.63;8.07;;;1.90;99.90;;;;;;5065938;28;20128;-64
2021/04/25 06:08:00;;;;;;;15.50;6.55;;;1.90;99.90;;;;;;5067434;28;20071;-63
2021/04/25 06:10:28;;;;;;;21.65;7.20;;;1.90;99.90;;;;;;5066827;28;20041;-63
2021/04/25 06:12:54;;;;;;;13.82;5.78;;;1.90;99.90;;;;;;5066313;28;20040;-62
2021/04/25 06:15:22;;;;;;;16.15;6.40;;;2.00;99.90;;;;;;5066317;28;20749;-62
2021/04/25 06:17:47;;;;;;;14.80;5.85;;;2.00;99.90;;;;;;5066791;28;20488;-61
2021/04/25 06:20:15;;;;;;;17.48;6.45;;;2.00;99.90;;;;;;5066585;28;20043;-62
2021/04/25 06:22:42;;;;;;;20.75;8.00;;;2.00;99.90;;;;;;5067869;28;20047;-62
2021/04/25 06:25:09;;;;;;;12.20;6.18;;;2.10;99.90;;;;;;5067467;28;20411;-60
2021/04/25 06:27:34;;;;;;;17.77;6.10;;;2.20;99.90;;;;;;5067152;28;20086;-57
2021/04/25 06:30:00;;;;;;;18.92;6.50;;;2.20;99.90;;;;;;5066924;28;20036;-62
2021/04/25 06:32:26;;;;;;;14.00;5.50;;;2.30;99.90;;;;;;5066384;28;20115;-63
2021/04/25 06:34:51;;;;;;;12.95;6.25;;;2.20;99.90;;;;;;5065978;28;20037;-61
2021/04/25 06:37:17;;;;;;;11.63;6.05;;;2.10;99.90;;;;;;5066961;28;20570;-62
2021/04/25 06:39:42;;;;;;;16.83;6.05;;;2.30;99.90;;;;;;5067186;28;20553;-61
2021/04/25 06:42:08;;;;;;;13.20;6.28;;;2.20;99.90;;;;;;5067097;28;20442;-67
2021/04/25 06:44:34;;;;;;;12.70;5.18;;;2.30;99.90;;;;;;5065734;28;20090;-67
2021/04/25 06:46:59;;;;;;;15.43;6.00;;;2.40;99.90;;;;;;5066942;28;20040;-66
2021/04/25 06:49:25;;;;;;;14.77;5.85;;;2.50;99.90;;;;;;5066930;28;20408;-63
2021/04/25 06:51:52;;;;;;;23.83;6.28;;;2.50;99.90;;;;;;5066773;28;20033;-63
2021/04/25 06:54:17;;;;;;;9.40;4.60;;;2.40;99.90;;;;;;5066989;28;20036;-63
2021/04/25 06:56:43;;;;;;;15.07;5.13;;;2.20;99.90;;;;;;5067457;28;20549;-64
2021/04/25 06:59:09;;;;;;;16.13;5.00;;;2.20;99.90;;;;;;5066443;28;20651;-66
2021/04/25 07:01:34;;;;;;;15.07;5.68;;;2.40;99.90;;;;;;5065795;28;20040;-68
2021/04/25 07:04:00;;;;;;;20.88;5.20;;;2.40;99.90;;;;;;5067228;28;20039;-66
2021/04/25 07:06:25;;;;;;;16.77;5.35;;;2.50;99.90;;;;;;5065370;28;20149;-67
2021/04/25 07:08:51;;;;;;;13.38;5.38;;;2.30;99.90;;;;;;5066602;28;20168;-68
2021/04/25 07:11:17;;;;;;;23.42;5.65;;;2.50;99.90;;;;;;5066644;28;20051;-67
2021/04/25 07:13:42;;;;;;;9.90;4.72;;;2.50;99.90;;;;;;5067204;28;20565;-67
2021/04/25 07:16:08;;;;;;;12.07;4.68;;;2.70;99.90;;;;;;5066560;28;20044;-65
2021/04/25 07:18:33;;;;;;;22.05;4.78;;;2.70;98.60;;;;;;5066929;28;20040;-63
2021/04/25 07:20:59;;;;;;;17.92;5.05;;;2.40;98.90;;;;;;5067844;28;20037;-66
2021/04/25 07:23:25;;;;;;;15.90;4.60;;;2.30;99.90;;;;;;5066519;28;20053;-65
2021/04/25 07:25:54;;;;;;;10.10;4.65;;;2.30;99.90;;;;;;5070826;28;20040;-66
2021/04/25 07:28:20;;;;;;;9.25;4.00;;;2.50;99.90;;;;;;5070405;28;20041;-63
2021/04/25 07:30:47;;;;;;;11.60;4.07;;;2.70;99.30;;;;;;5070555;28;20035;-63
2021/04/25 07:33:14;;;;;;;10.95;4.00;;;2.70;98.00;;;;;;5070480;28;20116;-64
2021/04/25 07:35:40;;;;;;;13.20;5.25;;;2.70;98.20;;;;;;5070655;28;20041;-64
2021/04/25 07:38:06;;;;;;;12.70;4.30;;;2.50;97.70;;;;;;5070986;28;20045;-65
2021/04/25 07:40:32;;;;;;;10.48;4.63;;;2.70;98.00;;;;;;5070042;28;20045;-66
2021/04/25 07:42:58;;;;;;;14.05;4.85;;;2.90;97.60;;;;;;5069296;28;20059;-64
2021/04/25 07:45:23;;;;;;;13.60;6.00;;;2.90;97.00;;;;;;5070049;28;20151;-59
2021/04/25 07:47:49;;;;;;;;;;;3.00;97.40;;;;;;5070281;28;20556;-60
2021/04/25 07:50:15;;;;;;;30.70;6.15;;;2.90;97.90;;;;;;5069921;28;20332;-60
2021/04/25 07:52:42;;;;;;;11.38;4.65;;;2.90;97.30;;;;;;5068584;28;20032;-59
2021/04/25 07:55:09;;;;;;;14.32;5.45;;;3.10;97.50;;;;;;5070114;28;20041;-60
2021/04/25 07:57:37;;;;;;;16.00;5.00;;;3.10;97.40;;;;;;5069310;28;20127;-59
2021/04/25 08:00:05;;;;;;;15.52;4.78;;;3.00;97.40;;;;;;5067979;28;20497;-58
2021/04/25 08:02:31;;;;;;;11.52;4.97;;;3.00;97.50;;;;;;5067269;28;20040;-60
2021/04/25 08:04:56;;;;;;;9.85;4.78;;;2.90;97.10;;;;;;5068314;28;20043;-60
2021/04/25 08:07:22;;;;;;;17.05;4.85;;;3.00;97.30;;;;;;5069030;28;20044;-60
2021/04/25 08:09:47;;;;;;;;;;;3.20;97.20;;;;;;5068634;28;20043;-60
2021/04/25 08:12:13;;;;;;;33.90;16.15;;;3.50;97.10;;;;;;5066413;28;19999;-59
2021/04/25 08:14:38;;;;;;;13.32;4.65;;;3.70;97.10;;;;;;5068184;28;20044;-60
2021/04/25 08:17:04;;;;;;;11.25;4.28;;;3.80;95.90;;;;;;5066378;28;20111;-59
2021/04/25 08:19:30;;;;;;;;;;;3.70;96.30;;;;;;5068610;28;20044;-60
2021/04/25 08:21:55;;;;;;;19.52;4.88;;;3.80;96.60;;;;;;5067155;28;19920;-64
2021/04/25 08:24:21;;;;;;;8.85;4.13;;;3.70;96.70;;;;;;5067899;28;20048;-61
2021/04/25 08:26:47;;;;;;;13.57;4.28;;;3.80;95.50;;;;;;5067807;28;20035;-60
2021/04/25 08:29:13;;;;;;;12.07;4.05;;;4.00;94.80;;;;;;5067674;28;20029;-60
2021/04/25 08:31:38;;;;;;;13.85;4.65;;;4.20;95.10;;;;;;5067288;28;20115;-60
2021/04/25 08:34:04;;;;;;;;;;;4.40;94.80;;;;;;5067998;28;20044;-60
2021/04/25 08:36:29;;;;;;;13.75;4.47;;;4.30;95.20;;;;;;5067684;28;19999;-59
2021/04/25 08:38:55;;;;;;;;;;;4.20;94.70;;;;;;5068470;28;20411;-55
2021/04/25 08:41:22;;;;;;;17.40;5.53;;;4.10;95.10;;;;;;5067265;28;19920;-58
2021/04/25 08:43:49;;;;;;;12.32;5.28;;;3.90;95.30;;;;;;5066610;28;20040;-57
2021/04/25 08:46:18;;;;;;;11.05;4.38;;;4.10;95.60;;;;;;5066391;28;20036;-56
2021/04/25 08:48:48;;;;;;;18.00;4.93;;;4.10;95.50;;;;;;5080304;28;20044;-58
2021/04/25 08:51:14;;;;;;;7.88;4.63;;;4.30;93.90;;;;;;5080372;28;20040;-58
2021/04/25 08:53:40;;;;;;;;;;;4.10;95.00;;;;;;5073367;28;20059;-58
2021/04/25 08:56:07;;;;;;;8.63;4.45;;;4.30;94.90;;;;;;5068690;28;19951;-59
2021/04/25 08:58:34;;;;;;;18.38;5.18;;;4.50;94.90;;;;;;5051868;28;20132;-59
2021/04/25 09:01:00;;;;;;;14.07;4.57;;;4.60;94.70;;;;;;5067811;28;20032;-59
2021/04/25 09:03:25;;;;;;;;;;;4.70;94.10;;;;;;5068178;28;20402;-56
2021/04/25 09:05:51;;;;;;;12.38;4.75;;;4.30;93.70;;;;;;5066672;28;20321;-58
2021/04/25 09:08:17;;;;;;;11.77;4.70;;;4.10;95.50;;;;;;5067325;28;20035;-57
2021/04/25 09:10:45;;;;;;;15.85;5.68;;;4.20;95.90;;;;;;5068380;28;20052;-54
2021/04/25 09:13:18;;;;;;;12.38;5.55;;;4.50;95.30;;;;;;5068189;28;20056;-57
2021/04/25 09:15:44;;;;;;;20.13;5.65;;;4.70;95.20;;;;;;5067095;28;20040;-52
2021/04/25 09:18:11;;;;;;;12.93;6.22;;;4.70;93.60;;;;;;5066476;28;20094;-57
2021/04/25 09:20:46;;;;;;;15.05;5.88;;;4.80;93.30;;;;;;5068556;28;20059;-57
2021/04/25 09:23:22;;;;;;;12.30;5.13;;;5.20;93.90;;;;;;5078761;28;20073;-59
2021/04/25 09:25:59;;;;;;;17.88;6.22;;;5.10;93.00;;;;;;5088682;28;20036;-58
2021/04/25 09:28:25;;;;;;;18.77;6.00;;;4.90;93.60;;;;;;5070075;28;20056;-59
2021/04/25 09:30:58;;;;;;;;;;;4.70;94.00;;;;;;5067285;28;20456;-58
2021/04/25 09:33:27;;;;;;;13.70;6.47;;;4.80;94.10;;;;;;5068166;28;19916;-56
2021/04/25 09:35:56;;;;;;;10.30;5.65;;;4.80;93.20;;;;;;5068040;28;20044;-59
2021/04/25 09:38:22;;;;;;;15.43;5.55;;;4.70;94.40;;;;;;5068380;28;20512;-60
2021/04/25 09:40:49;;;;;;;;;;;4.90;94.70;;;;;;5068558;28;20500;-60
2021/04/25 09:43:17;;;;;;;17.48;5.20;;;5.30;93.70;;;;;;5068190;28;19927;-58
2021/04/25 09:45:45;;;;;;;12.02;5.57;;;5.30;92.70;;;;;;5067292;28;20047;-59
2021/04/25 09:48:29;;;;;;;11.82;5.78;;;5.40;92.40;;;;;;5072788;28;20024;-60
2021/04/25 09:51:24;;;;;;;12.10;6.22;;;5.30;93.00;;;;;;5076928;28;20036;-59
2021/04/25 09:53:50;;;;;;;11.35;5.50;;;5.50;93.10;;;;;;5080518;28;20485;-59
2021/04/25 09:56:16;;;;;;;;;;;5.70;91.50;;;;;;5082811;28;20047;-60
2021/04/25 09:59:11;;;;;;;14.23;5.65;;;5.60;91.60;;;;;;5088423;28;19987;-59
2021/04/25 10:01:42;;;;;;;12.95;6.03;;;5.70;93.40;;;;;;5061229;28;20127;-60
2021/04/25 10:04:28;;;;;;;17.65;5.53;;;5.60;92.50;;;;;;5063140;28;20065;-59
2021/04/25 10:06:56;;;;;;;14.07;5.85;;;5.40;93.00;;;;;;5072520;28;20039;-59
2021/04/25 10:09:22;;;;;;;14.20;5.40;;;5.70;92.50;;;;;;5082642;28;20047;-58
2021/04/25 10:11:48;;;;;;;;;;;5.50;91.50;;;;;;5087560;28;20058;-60
2021/04/25 10:14:14;;;;;;;14.43;5.90;;;5.40;93.00;;;;;;5087710;28;19919;-60
2021/04/25 10:16:42;;;;;;;19.25;6.13;;;5.50;92.90;;;;;;5086944;28;20100;-59
2021/04/25 10:19:08;;;;;;;10.27;5.07;;;5.60;93.70;;;;;;5087296;28;20101;-57
2021/04/25 10:21:35;;;;;;;15.38;5.45;;;5.60;93.00;;;;;;5087541;28;20047;-59
2021/04/25 10:24:04;;;;;;;6.75;5.22;;;5.70;92.40;;;;;;5087593;28;20040;-59
2021/04/25 10:26:33;;;;;;;9.77;5.13;;;5.90;92.00;;;;;;5087192;28;20543;-60
2021/04/25 10:29:04;;;;;;;12.43;5.70;;;6.20;91.90;;;;;;5058115;28;20051;-59
2021/04/25 10:31:34;;;;;;;16.20;5.60;;;6.60;92.40;;;;;;5066428;28;20488;-59
2021/04/25 10:34:05;;;;;;;10.35;5.57;;;6.70;91.60;;;;;;5066546;28;20058;-59
2021/04/25 10:36:50;;;;;;;16.23;5.22;;;6.90;90.00;;;;;;5062908;28;20106;-59
2021/04/25 10:39:38;;;;;;;14.82;5.40;;;6.70;90.00;;;;;;5061870;28;20412;-57
2021/04/25 10:42:16;;;;;;;11.15;5.28;;;6.30;91.20;;;;;;5065712;28;20623;-59
2021/04/25 10:47:23;;;;;;;9.85;6.15;;;6.30;92.70;;;;;;5066368;28;20047;-59
2021/04/25 10:49:48;;;;;;;8.95;4.80;;;6.70;90.90;;;;;;5066796;28;20044;-60
2021/04/25 10:52:21;;;;;;;;;;;6.70;90.20;;;;;;5066604;28;20557;-59
2021/04/25 10:55:11;;;;;;;11.43;5.30;;;6.40;90.60;;;;;;5065975;28;19927;-58
2021/04/25 10:58:07;;;;;;;12.90;5.88;;;6.50;91.70;;;;;;5066717;28;20048;-60
2021/04/25 11:00:40;;;;;;;16.40;5.28;;;6.20;91.30;;;;;;5066094;28;20044;-59
2021/04/25 11:03:07;;;;;;;9.82;5.20;;;6.30;91.20;;;;;;5065729;28;20055;-59
2021/04/25 11:05:36;;;;;;;15.45;4.97;;;6.10;91.50;;;;;;5064348;28;20068;-55
2021/04/25 11:08:13;;;;;;;9.73;5.07;;;6.10;92.30;;;;;;5066154;28;20036;-59
2021/04/25 11:10:52;;;;;;;15.82;5.50;;;6.10;90.60;;;;;;5055737;28;20032;-61
2021/04/25 11:13:33;;;;;;;13.32;5.47;;;6.30;91.10;;;;;;5065744;28;20049;-57
2021/04/25 11:16:05;;;;;;;12.15;5.28;;;6.30;91.40;;;;;;5057816;28;20124;-58
2021/04/25 11:18:48;;;;;;;7.78;5.35;;;6.40;91.10;;;;;;5045780;28;20041;-57
2021/04/25 11:21:39;;;;;;;18.88;5.60;;;6.50;90.70;;;;;;5045770;28;20650;-58
2021/04/25 11:24:08;;;;;;;15.30;6.22;;;6.50;91.70;;;;;;5045361;28;20048;-60
2021/04/25 11:29:09;;;;;;;9.07;4.97;;;6.50;92.40;;;;;;5045324;28;20041;-60
2021/04/25 11:31:47;;;;;;;14.65;5.43;;;6.30;90.10;;;;;;5056633;28;20060;-60
2021/04/25 11:34:25;;;;;;;14.48;5.78;;;6.10;92.30;;;;;;5065692;28;20083;-59
2021/04/25 11:36:54;;;;;;;9.73;5.60;;;6.20;91.20;;;;;;5065372;28;20042;-59
2021/04/25 11:39:32;;;;;;;12.32;4.57;;;6.50;90.60;;;;;;5065333;28;20507;-58
2021/04/25 11:41:58;;;;;;;13.13;5.47;;;6.60;90.80;;;;;;5081221;28;20044;-58
2021/04/25 11:44:25;;;;;;;11.68;4.70;;;6.70;89.80;;;;;;5064966;28;20110;-59
2021/04/25 11:46:50;;;;;;;9.57;4.90;;;6.70;88.10;;;;;;5050451;28;20071;-59
2021/04/25 11:49:16;;;;;;;;;;;7.00;88.10;;;;;;5046273;28;20072;-60
2021/04/25 11:51:42;;;;;;;11.73;5.82;;;6.90;87.00;;;;;;5044881;28;19917;-57
2021/04/25 11:54:20;;;;;;;;;;;6.90;87.80;;;;;;5046029;28;20098;-58
2021/04/25 11:56:45;;;;;;;10.68;5.90;;;6.80;89.90;;;;;;5045274;28;19925;-59
2021/04/25 11:59:11;;;;;;;;;;;6.40;88.50;;;;;;5045524;28;20479;-60
2021/04/25 12:01:39;;;;;;;10.23;4.97;;;6.30;88.40;;;;;;5044071;28;19922;-59
2021/04/25 12:04:05;;;;;;;10.50;5.57;;;6.40;89.30;;;;;;5045061;28;20052;-58
2021/04/25 12:06:47;;;;;;;16.08;6.43;;;6.40;90.60;;;;;;5045084;28;20064;-59
2021/04/25 12:09:14;;;;;;;16.63;5.55;;;6.60;91.30;;;;;;5044575;28;20116;-60
2021/04/25 12:11:39;;;;;;;11.10;5.25;;;6.80;91.10;;;;;;5046840;28;20386;-60
2021/04/25 12:14:25;;;;;;;;;;;6.80;90.60;;;;;;5048923;28;20043;-59
2021/04/25 12:17:10;;;;;;;10.93;4.50;;;6.90;90.50;;;;;;5047275;28;19921;-59
2021/04/25 12:19:35;;;;;;;6.93;4.72;;;7.00;89.10;;;;;;5049337;28;20040;-58
2021/04/25 12:22:01;;;;;;;;;;;7.00;87.80;;;;;;5048665;28;20045;-56
2021/04/25 12:24:26;;;;;;;11.77;4.95;;;7.00;88.80;;;;;;5049169;28;19924;-57
2021/04/25 12:26:52;;;;;;;;;;;6.80;88.20;;;;;;5050582;28;20126;-58
2021/04/25 12:29:34;;;;;;;8.27;5.25;;;6.80;87.20;;;;;;5050351;28;19931;-59
2021/04/25 12:32:00;;;;;;;9.15;4.93;;;6.80;86.30;;;;;;5050649;28;20144;-60
2021/04/25 12:34:31;;;;;;;9.82;4.68;;;7.00;88.80;;;;;;5050520;28;20060;-60
2021/04/25 12:36:59;;;;;;;9.70;5.10;;;7.10;87.00;;;;;;5047617;28;20145;-60
2021/04/25 12:39:39;;;;;;;14.77;5.07;;;7.20;87.30;;;;;;5050943;28;20045;-60
2021/04/25 12:42:05;;;;;;;8.35;4.60;;;7.10;87.00;;;;;;5050004;28;20546;-60
2021/04/25 12:44:33;;;;;;;;;;;7.10;86.80;;;;;;5044952;28;20049;-56
2021/04/25 12:47:00;;;;;;;15.27;5.10;;;7.10;86.80;;;;;;5049573;28;20404;-50
2021/04/25 12:49:36;;;;;;;7.30;3.85;;;7.00;86.40;;;;;;5047075;28;20049;-52
2021/04/25 12:52:03;;;;;;;10.82;4.68;;;7.10;86.40;;;;;;5038839;28;20050;-54
2021/04/25 12:54:44;;;;;;;10.35;4.30;;;7.20;86.90;;;;;;5045453;28;20114;-60
2021/04/25 12:57:10;;;;;;;8.40;4.82;;;7.10;85.80;;;;;;5043211;28;20575;-58
2021/04/25 12:59:37;;;;;;;7.85;3.95;;;7.20;85.50;;;;;;5048577;28;20571;-58